Terminal Aerodrome Forecast
Issued by NWS Portland, OR

Current Version | Previous Version | Text Only | Print | Product List | Glossary On
Versions: 1 2 3 4 5 6 7 8 9 10 11 12 13 14 15 16
000
FTUS46 KPQR 181203 AAA
TAFAST
TAF AMD
KAST 181203Z 1812/1912 20025G40KT 6SM -SHRA SCT008 OVC015
     FM181400 20035G50KT 3SM -SHRA SCT008 BKN015 OVC025
     FM181630 20015G25KT 6SM -SHRA BKN015 BKN035
     FM190000 20012KT 6SM -SHRA BKN015 BKN035
     FM190500 19010KT 3SM -SHRA BKN008 OVC015=

USA.gov is the U.S. government's official web portal to all federal, state and local government web resources and services.